Aviation Digital Data Service (ADDS)

Output produced by METARs form (1200 UTC 19 January 2019)
found at http://www.aviationweather.gov/metar/data/
 
Forecast for: AMD
Text: TAF AMD GCLP 191059Z 1910/2009 01018KT 9999 BKN030 TX20/1914Z TN16/2006Z
Forecast period: 1000 UTC 19 January 2019 to 0900 UTC 20 January 2019
Forecast type: FROM: standard forecast or significant change
Winds: from the N (10 degrees) at 21 MPH (18 knots; 9.3 m/s)
Visibility: 6 or more miles 10+ km)
Ceiling: 3000 feet AGL
Clouds: broken clouds at 3000 feet AGL
Weather: no significant weather forecast for this period
Text: PROB40
Forecast period: 1000 to 1700 UTC 19 January 2019
Forecast type: TEMPORARY: The following changes expected for less than half the time period
Winds: from the N (10 degrees) at 21 MPH (18 knots; 9.3 m/s)
gusting to 32 MPH (28 knots; 14.4 m/s)
Visibility: missing
Ceiling: unknown
Clouds: missing
Weather: no significant weather forecast for this period